Time;durP1;ratioP1;P1;durP2;ratioP2;P2;SDS_P1;SDS_P2;PMS_P1;PMS_P2;Temp;Humidity;BMP_temperature;BMP_pressure;BME280_temperature;BME280_humidity;BME280_pressure;Samples;Min_cycle;Max_cycle;Signal;HPM_P1;HPM_P2
2021/12/17 00:05:43;;;;;;;16.50;10.82;;;4.20;99.90;;;3.53;100.00;99267.34;4946388;28;20074;-42
2021/12/17 00:08:08;;;;;;;17.13;11.18;;;4.30;99.90;;;3.59;100.00;99281.44;4991768;28;20328;-45
2021/12/17 00:10:34;;;;;;;20.25;12.27;;;4.30;99.90;;;3.59;100.00;99276.22;4999083;28;21411;-42
2021/12/17 00:13:00;;;;;;;17.13;10.43;;;4.40;99.90;;;3.60;100.00;99275.34;4994566;28;20132;-41
2021/12/17 00:15:26;;;;;;;16.38;9.75;;;4.40;99.90;;;3.62;100.00;99276.28;4997444;28;20385;-41
2021/12/17 00:17:58;;;;;;;15.82;9.70;;;4.30;99.90;;;3.66;100.00;99276.31;4998893;28;20064;-42
2021/12/17 00:40:12;;;;;;;14.25;9.07;;;4.40;99.90;;;3.56;100.00;99273.53;5001387;28;20145;-45
2021/12/17 00:53:23;;;;;;;16.45;9.70;;;4.30;99.90;;;3.54;100.00;99238.69;5001797;28;20045;-82
2021/12/17 00:55:49;;;;;;;15.93;10.50;;;4.40;99.90;;;3.52;100.00;99229.09;4978967;28;20026;-82
2021/12/17 00:58:15;;;;;;;17.63;10.95;;;4.40;99.90;;;3.55;100.00;99230.03;4987981;28;20159;-82
2021/12/17 01:00:40;;;;;;;17.35;10.63;;;4.40;99.90;;;3.57;100.00;99219.59;5001790;28;20030;-82
2021/12/17 01:03:06;;;;;;;12.60;8.18;;;4.50;99.90;;;3.76;100.00;99257.41;4986497;28;20380;-83
2021/12/17 01:05:32;;;;;;;12.60;8.73;;;4.50;99.90;;;3.56;100.00;99225.69;5005314;28;20062;-82
2021/12/17 01:08:01;;;;;;;12.23;7.60;;;4.50;99.90;;;3.73;100.00;99241.66;5019188;28;20454;-82
2021/12/17 01:10:33;;;;;;;14.02;9.20;;;4.50;99.90;;;3.75;100.00;99233.03;5001788;28;20044;-82
2021/12/17 01:13:00;;;;;;;16.38;10.10;;;4.50;99.90;;;3.52;100.00;99180.41;4983604;28;20037;-82
2021/12/17 01:15:26;;;;;;;16.25;10.57;;;4.50;99.90;;;3.80;100.00;99223.56;4993075;28;20357;-83
2021/12/17 01:18:00;;;;;;;18.85;10.85;;;4.50;99.90;;;3.83;100.00;99212.28;5002010;28;20030;-82
2021/12/17 01:20:46;;;;;;;16.45;10.25;;;4.60;99.90;;;3.77;100.00;99197.41;5000287;28;20037;-83
2021/12/17 01:23:44;;;;;;;16.30;10.77;;;4.60;99.90;;;3.86;100.00;99212.38;4985760;28;20086;-82
2021/12/17 01:36:39;;;;;;;19.55;11.63;;;4.80;99.90;;;3.97;100.00;99220.41;5002535;28;20437;-82
2021/12/17 01:44:10;;;;;;;15.27;10.43;;;4.80;99.90;;;4.07;100.00;99234.50;5016712;28;20156;-84
2021/12/17 01:46:39;;;;;;;20.63;11.32;;;4.90;99.90;;;4.14;100.00;99252.91;5007499;28;20041;-83
2021/12/17 02:00:00;;;;;;;16.80;10.50;;;5.00;99.90;;;4.21;100.00;99248.69;5010956;28;20549;-83
2021/12/17 02:02:28;;;;;;;12.43;8.23;;;4.90;99.90;;;4.21;100.00;99252.16;5009572;28;20419;-84
2021/12/17 02:04:54;;;;;;;12.60;7.65;;;4.90;99.90;;;4.02;100.00;99208.31;5011449;28;20040;-84
2021/12/17 02:07:20;;;;;;;14.05;6.57;;;4.90;99.90;;;4.15;100.00;99232.91;5011570;28;20026;-84
2021/12/17 02:29:53;;;;;;;17.83;11.60;;;4.90;99.90;;;4.15;100.00;99209.41;5009887;28;20040;-83
2021/12/17 02:32:20;;;;;;;20.10;11.13;;;5.00;99.90;;;4.20;100.00;99207.75;5011292;28;20384;-83
2021/12/17 02:37:19;;;;;;;10.85;6.82;;;4.90;99.90;;;4.20;100.00;99220.81;5005492;28;20037;-83
2021/12/17 02:47:58;;;;;;;12.18;7.93;;;4.80;99.90;;;4.04;100.00;99204.00;5010972;28;20127;-83
2021/12/17 02:50:24;;;;;;;13.93;9.30;;;4.80;99.90;;;4.04;100.00;99192.66;4995876;28;20647;-84
2021/12/17 02:52:53;;;;;;;15.48;9.05;;;4.70;99.90;;;3.96;100.00;99176.84;5006972;28;20044;-82
2021/12/17 02:55:21;;;;;;;14.73;9.10;;;4.70;99.90;;;3.99;100.00;99182.13;5020077;28;20450;-82
2021/12/17 02:57:48;;;;;;;14.95;8.98;;;4.70;99.90;;;3.89;100.00;99165.41;4989695;28;20033;-83
2021/12/17 03:00:15;;;;;;;15.95;9.13;;;4.70;99.90;;;3.92;100.00;99168.09;5002386;28;20033;-83
2021/12/17 03:02:41;;;;;;;16.70;9.80;;;4.70;99.90;;;3.96;100.00;99175.09;5003733;28;20040;-83
2021/12/17 03:05:09;;;;;;;17.60;10.43;;;4.70;99.90;;;3.95;100.00;99168.16;4989545;28;20204;-83
2021/12/17 03:07:38;;;;;;;15.82;10.05;;;4.80;99.90;;;4.07;100.00;99185.75;4989232;28;20022;-83
2021/12/17 03:10:08;;;;;;;17.33;10.65;;;4.80;99.90;;;3.96;100.00;99169.88;5001966;28;20029;-83
2021/12/17 03:12:43;;;;;;;16.58;10.40;;;4.70;99.90;;;3.75;100.00;99132.97;5019490;28;20037;-82
2021/12/17 03:25:48;;;;;;;17.63;10.07;;;4.70;99.90;;;3.87;100.00;99159.28;5005439;28;20419;-83
2021/12/17 03:28:14;;;;;;;13.95;9.27;;;4.70;99.90;;;3.98;100.00;99185.59;4999420;28;20064;-82
2021/12/17 03:30:39;;;;;;;16.23;10.02;;;4.70;99.90;;;3.91;100.00;99191.53;4984628;28;20567;-83
2021/12/17 03:33:05;;;;;;;15.63;9.82;;;4.70;99.90;;;3.73;100.00;99166.88;4983906;28;20132;-83
2021/12/17 03:35:31;;;;;;;17.77;9.45;;;4.70;99.90;;;3.88;100.00;99187.16;5018025;28;20029;-83
2021/12/17 03:37:57;;;;;;;18.50;10.43;;;4.70;99.90;;;3.92;100.00;99194.19;4987826;28;20128;-82
2021/12/17 03:40:22;;;;;;;16.30;9.13;;;4.60;99.90;;;3.66;100.00;99153.69;5003113;28;20045;-82
2021/12/17 03:42:50;;;;;;;14.25;9.60;;;4.60;99.90;;;3.74;100.00;99172.97;5022238;28;20029;-83
2021/12/17 03:45:19;;;;;;;15.73;10.75;;;4.60;99.90;;;3.57;100.00;99150.06;4987447;28;20037;-83
2021/12/17 03:47:45;;;;;;;17.20;10.27;;;4.60;99.90;;;3.87;100.00;99197.56;4991653;28;20036;-83
2021/12/17 03:50:11;;;;;;;15.32;9.48;;;4.60;99.90;;;3.85;100.00;99199.28;5006504;28;20390;-83
2021/12/17 03:52:37;;;;;;;18.58;10.35;;;4.60;99.90;;;3.83;100.00;99204.47;5011072;28;20033;-83
2021/12/17 03:55:04;;;;;;;15.88;10.50;;;4.60;99.90;;;3.56;100.00;99166.56;4984646;28;20034;-84
2021/12/17 03:57:30;;;;;;;15.55;9.57;;;4.50;99.90;;;3.81;100.00;99207.03;5005717;28;20103;-83
2021/12/17 03:59:56;;;;;;;16.52;9.18;;;4.50;99.90;;;3.75;100.00;99200.81;4990540;28;20237;-83
2021/12/17 04:02:21;;;;;;;12.73;8.63;;;4.50;99.90;;;3.72;100.00;99193.81;5003087;28;20120;-83
2021/12/17 04:04:47;;;;;;;13.13;9.30;;;4.50;99.90;;;3.70;100.00;99181.59;5020431;28;20045;-82
2021/12/17 04:07:13;;;;;;;15.32;9.73;;;4.60;99.90;;;3.80;100.00;99193.97;5002298;28;20022;-83
2021/12/17 04:09:39;;;;;;;18.13;10.18;;;4.60;99.90;;;3.72;100.00;99192.94;5011897;28;20075;-83
2021/12/17 04:12:10;;;;;;;21.35;12.52;;;4.60;99.90;;;3.89;100.00;99194.13;4994722;28;20033;-83
2021/12/17 04:14:44;;;;;;;20.25;13.43;;;4.60;99.90;;;3.91;100.00;99182.00;5003146;28;20029;-83
2021/12/17 04:17:10;;;;;;;22.58;14.35;;;4.70;99.90;;;4.03;100.00;99203.97;5012151;28;20037;-83
2021/12/17 04:19:36;;;;;;;18.80;11.52;;;4.70;99.90;;;3.92;100.00;99175.03;4993401;28;20022;-83
2021/12/17 04:22:03;;;;;;;18.95;10.85;;;4.80;99.90;;;3.86;100.00;99164.47;5023722;28;20044;-83
2021/12/17 04:24:29;;;;;;;17.42;9.82;;;4.80;99.90;;;4.00;100.00;99182.16;4990851;28;20034;-84
2021/12/17 04:26:55;;;;;;;17.55;11.38;;;4.80;99.90;;;4.07;100.00;99204.03;5007813;28;20411;-83
2021/12/17 04:29:22;;;;;;;17.02;10.32;;;4.80;99.90;;;3.98;100.00;99190.81;5008209;28;20086;-82
2021/12/17 04:31:55;;;;;;;15.10;9.60;;;4.80;99.90;;;4.05;100.00;99199.63;5002386;28;20040;-83
2021/12/17 04:34:22;;;;;;;15.65;9.27;;;4.70;99.90;;;4.01;100.00;99207.41;5010938;28;20518;-83
2021/12/17 04:36:51;;;;;;;17.90;10.60;;;4.70;99.90;;;4.03;100.00;99210.06;5007253;28;20485;-83
2021/12/17 04:39:18;;;;;;;20.40;12.25;;;4.80;99.90;;;4.04;100.00;99198.78;5007063;28;20051;-83
2021/12/17 04:44:21;;;;;;;23.75;13.30;;;4.80;99.90;;;3.79;100.00;99145.25;5026716;28;20037;-83
2021/12/17 04:57:48;;;;;;;17.85;12.10;;;4.70;99.90;;;3.95;100.00;99167.28;5010770;28;20075;-83
2021/12/17 05:00:24;;;;;;;19.35;11.63;;;4.70;99.90;;;4.04;100.00;99182.19;4992828;28;20076;-83
2021/12/17 05:02:54;;;;;;;18.83;12.23;;;4.70;99.90;;;3.97;100.00;99171.66;5014122;28;20591;-83
2021/12/17 05:05:27;;;;;;;17.27;11.25;;;4.70;99.90;;;3.83;100.00;99155.75;4987956;28;20352;-84
2021/12/17 05:07:58;;;;;;;20.40;11.77;;;4.70;99.90;;;3.91;100.00;99165.44;5009000;28;20262;-83
2021/12/17 05:18:27;;;;;;;20.38;12.93;;;4.80;99.90;;;3.93;100.00;99143.75;5008718;28;20045;-83
2021/12/17 05:21:04;;;;;;;21.10;13.07;;;4.80;99.90;;;4.04;100.00;99150.88;4990989;28;20034;-83
2021/12/17 05:23:38;;;;;;;21.80;12.95;;;4.80;99.90;;;4.04;100.00;99150.88;5014577;28;20093;-83
2021/12/17 05:26:10;;;;;;;21.63;13.68;;;4.80;99.90;;;3.93;100.00;99125.47;5027094;28;20036;-83
2021/12/17 05:28:36;;;;;;;;;;;4.80;99.90;;;4.06;100.00;99155.28;5017524;28;20025;-83
2021/12/17 05:31:03;;;;;;;22.17;12.82;;;4.80;99.90;;;4.07;100.00;99154.41;5034459;28;19917;-83
2021/12/17 05:33:28;;;;;;;18.17;12.55;;;4.90;99.90;;;4.01;100.00;99152.56;5005390;28;20376;-83
2021/12/17 05:35:56;;;;;;;24.73;13.60;;;4.80;99.90;;;4.15;100.00;99170.22;4995532;28;20439;-83
2021/12/17 05:38:25;;;;;;;20.60;13.25;;;4.90;99.90;;;4.14;100.00;99163.25;4994190;28;20033;-83
2021/12/17 05:40:52;;;;;;;21.05;13.75;;;4.90;99.90;;;4.10;100.00;99157.09;4995930;28;20037;-83
2021/12/17 05:43:17;;;;;;;22.50;13.77;;;4.80;99.90;;;3.96;100.00;99122.91;4991301;28;20531;-83
2021/12/17 05:48:16;;;;;;;21.42;13.50;;;4.80;99.90;;;3.86;100.00;99121.00;5011753;28;20517;-83
2021/12/17 05:50:45;;;;;;;27.55;14.75;;;4.80;99.90;;;4.16;100.00;99169.38;5014843;28;20041;-83
2021/12/17 05:53:11;;;;;;;20.15;12.23;;;4.90;99.90;;;4.04;100.00;99151.78;5004506;28;20040;-82
2021/12/17 05:55:37;;;;;;;20.52;11.38;;;4.80;99.90;;;4.14;100.00;99160.63;4990089;28;20043;-83
2021/12/17 05:58:05;;;;;;;19.15;12.25;;;4.80;99.90;;;4.14;100.00;99158.88;4983251;28;20021;-84
2021/12/17 06:00:33;;;;;;;18.67;11.77;;;4.90;99.90;;;4.21;100.00;99159.88;5002884;28;20029;-83
2021/12/17 06:03:00;;;;;;;17.23;11.43;;;4.90;99.90;;;4.22;100.00;99153.81;5001508;28;20513;-83
2021/12/17 06:05:27;;;;;;;19.10;11.13;;;4.90;99.90;;;4.14;100.00;99137.13;5006031;28;20113;-83
2021/12/17 06:07:53;;;;;;;17.23;10.15;;;4.90;99.90;;;4.16;100.00;99149.38;5001317;28;20418;-83
2021/12/17 06:10:19;;;;;;;18.30;11.27;;;4.90;99.90;;;4.19;100.00;99151.16;5002660;28;20064;-84
2021/12/17 06:12:45;;;;;;;16.30;10.85;;;4.90;99.90;;;4.19;100.00;99151.16;5002421;28;20483;-82
2021/12/17 06:15:16;;;;;;;16.92;10.95;;;5.00;99.90;;;4.28;100.00;99160.88;5018212;23;20053;-44
2021/12/17 06:17:42;;;;;;;15.93;9.93;;;5.00;99.90;;;4.30;100.00;99160.03;5013378;28;20030;-48
2021/12/17 06:20:13;;;;;;;19.73;11.55;;;5.00;99.90;;;4.30;100.00;99157.41;5015700;28;20038;-46
2021/12/17 06:22:39;;;;;;;15.90;10.85;;;5.00;99.90;;;4.29;100.00;99153.06;4998325;28;20042;-48
2021/12/17 06:25:07;;;;;;;16.40;10.82;;;5.00;99.90;;;4.31;100.00;99166.16;4995770;28;20057;-48
2021/12/17 06:27:35;;;;;;;17.90;10.55;;;5.00;99.90;;;4.25;100.00;99166.91;5008894;28;20064;-46
2021/12/17 06:30:02;;;;;;;15.10;10.32;;;5.00;99.90;;;4.27;100.00;99170.44;5008948;28;20057;-47
2021/12/17 06:32:28;;;;;;;16.45;11.25;;;5.00;99.90;;;4.22;100.00;99164.25;5031182;23;20041;-81
2021/12/17 06:34:54;;;;;;;16.17;10.75;;;5.00;99.90;;;4.30;100.00;99186.16;5003379;28;20237;-80
2021/12/17 06:37:20;;;;;;;12.73;9.05;;;5.00;99.90;;;4.19;100.00;99167.69;4990843;28;20456;-81
2021/12/17 06:39:48;;;;;;;13.77;9.30;;;5.10;99.90;;;4.31;100.00;99182.69;5002286;28;20182;-81
2021/12/17 06:42:14;;;;;;;12.20;7.72;;;5.10;99.90;;;4.27;100.00;99178.28;5006880;28;20033;-81
2021/12/17 06:44:42;;;;;;;12.10;8.43;;;5.10;99.90;;;4.35;100.00;99179.25;5020257;28;20018;-81
2021/12/17 07:06:02;;;;;;;17.55;9.35;;;5.20;99.90;;;4.44;100.00;99199.44;5002287;28;20052;-80
2021/12/17 07:21:59;;;;;;;11.75;7.68;;;5.10;99.90;;;4.47;100.00;99216.91;4998735;28;20029;-80
2021/12/17 07:32:43;;;;;;;14.10;9.45;;;5.20;99.90;;;4.40;100.00;99218.53;5014857;28;20029;-80
2021/12/17 07:40:10;;;;;;;14.13;8.52;;;5.10;99.90;;;4.40;100.00;99218.53;4995905;28;20026;-80
2021/12/17 07:42:37;;;;;;;14.57;8.63;;;5.10;99.90;;;4.32;100.00;99223.63;5015003;28;20100;-80
2021/12/17 07:45:04;;;;;;;12.43;8.82;;;5.10;99.90;;;4.45;100.00;99231.66;4993285;28;20364;-80
2021/12/17 07:47:30;;;;;;;12.00;7.95;;;5.10;99.90;;;4.21;100.00;99206.88;4994436;28;20034;-80
2021/12/17 07:49:56;;;;;;;13.68;8.40;;;5.10;99.90;;;4.28;100.00;99215.72;4994884;28;20045;-80
2021/12/17 07:52:22;;;;;;;13.35;8.52;;;5.00;99.90;;;4.27;100.00;99217.47;4996700;28;20029;-80
2021/12/17 07:54:48;;;;;;;13.07;8.13;;;5.00;99.90;;;4.19;100.00;99219.03;4994049;28;20042;-80
2021/12/17 07:57:14;;;;;;;11.65;8.18;;;5.00;99.90;;;4.15;100.00;99225.94;4992093;28;20080;-80
2021/12/17 07:59:40;;;;;;;12.35;8.27;;;4.90;99.90;;;4.11;100.00;99218.00;4997954;28;20101;-80
2021/12/17 08:02:06;;;;;;;12.45;8.02;;;4.90;99.90;;;4.09;100.00;99217.09;5005195;28;20309;-80
2021/12/17 08:04:33;;;;;;;12.35;8.20;;;4.90;99.90;;;4.09;100.00;99211.88;4992737;28;20513;-80
2021/12/17 08:06:59;;;;;;;13.50;8.32;;;4.90;99.90;;;4.13;100.00;99214.59;5012464;28;20072;-80
2021/12/17 08:09:25;;;;;;;14.23;8.43;;;4.90;99.90;;;4.10;100.00;99219.75;4997672;28;20051;-80
2021/12/17 08:11:57;;;;;;;11.48;8.13;;;4.90;99.90;;;4.14;100.00;99223.31;5006467;28;20046;-80
2021/12/17 08:14:26;;;;;;;13.65;8.52;;;4.90;99.90;;;4.09;100.00;99219.72;5010554;28;20314;-80
2021/12/17 08:17:00;;;;;;;12.07;8.00;;;4.90;99.90;;;4.07;100.00;99222.31;5024905;28;20042;-80
2021/12/17 08:24:56;;;;;;;12.43;8.10;;;4.80;99.90;;;3.80;100.00;99225.28;5015411;28;20558;-80
2021/12/17 08:29:56;;;;;;;10.50;7.45;;;4.60;99.90;;;3.70;100.00;99228.59;4995952;28;20033;-80
2021/12/17 08:32:22;;;;;;;10.48;6.70;;;4.50;99.90;;;3.66;100.00;99237.19;4993752;28;20387;-82
2021/12/17 08:34:48;;;;;;;12.98;7.97;;;4.40;99.90;;;3.59;100.00;99238.81;4994837;28;20037;-80
2021/12/17 08:37:14;;;;;;;11.65;7.53;;;4.40;99.90;;;3.52;100.00;99235.19;5034147;28;20010;-80
2021/12/17 08:39:40;;;;;;;11.45;6.75;;;4.30;99.90;;;3.36;100.00;99214.84;5029379;28;20334;-80
2021/12/17 08:42:07;;;;;;;9.95;6.45;;;4.20;99.90;;;3.27;100.00;99215.53;5018564;28;20454;-80
2021/12/17 08:44:32;;;;;;;10.93;6.55;;;4.20;99.90;;;3.22;100.00;99209.34;5020438;28;20093;-81
2021/12/17 08:46:58;;;;;;;15.15;7.47;;;4.10;99.90;;;3.14;100.00;99210.88;5007303;28;20025;-80
2021/12/17 08:49:24;;;;;;;12.52;8.18;;;4.10;99.90;;;3.29;100.00;99237.31;5002873;28;20578;-80
2021/12/17 08:51:50;;;;;;;10.45;7.13;;;4.10;99.90;;;3.35;100.00;99246.97;4998787;28;20065;-79
2021/12/17 08:54:16;;;;;;;9.95;6.57;;;4.20;99.90;;;3.21;100.00;99223.19;5005180;28;20077;-80
2021/12/17 08:56:46;;;;;;;9.40;6.50;;;4.20;99.90;;;3.39;100.00;99247.09;5004334;28;20029;-80
2021/12/17 08:59:14;;;;;;;6.90;5.22;;;4.20;99.90;;;3.47;100.00;99246.38;5005281;28;20412;-80
2021/12/17 09:01:41;;;;;;;7.88;5.70;;;4.20;99.90;;;3.50;100.00;99244.72;4994903;28;20059;-80
2021/12/17 09:04:06;;;;;;;12.40;6.45;;;4.20;99.90;;;3.61;100.00;99245.81;5001601;28;20040;-80
2021/12/17 09:06:32;;;;;;;7.65;5.53;;;4.30;99.90;;;3.60;100.00;99249.25;5004572;28;20049;-80
2021/12/17 09:08:58;;;;;;;10.82;5.80;;;4.40;99.90;;;3.50;100.00;99229.06;5006707;28;20291;-81
2021/12/17 09:11:27;;;;;;;6.88;5.13;;;4.40;99.90;;;3.62;100.00;99241.44;5007347;28;20034;-80
2021/12/17 09:13:57;;;;;;;8.23;5.68;;;4.40;99.90;;;3.67;100.00;99244.16;5020123;28;20413;-80
2021/12/17 09:16:23;;;;;;;8.50;5.18;;;4.50;99.90;;;3.67;100.00;99237.22;5005776;28;20129;-81
2021/12/17 09:18:52;;;;;;;7.25;5.13;;;4.50;99.90;;;3.72;100.00;99243.41;5005958;28;20084;-80
2021/12/17 09:21:19;;;;;;;7.18;5.50;;;4.50;99.90;;;3.81;100.00;99242.72;4990874;28;20029;-80
2021/12/17 09:23:45;;;;;;;8.45;5.47;;;4.60;99.90;;;3.83;100.00;99247.09;4986522;28;20025;-80
2021/12/17 09:26:14;;;;;;;8.77;5.72;;;4.60;99.90;;;3.89;100.00;99246.34;4988862;28;20038;-81
2021/12/17 09:28:40;;;;;;;17.02;8.27;;;4.70;99.90;;;3.97;100.00;99244.75;5004758;28;20029;-80
2021/12/17 09:31:11;;;;;;;9.90;5.93;;;4.70;99.90;;;3.92;100.00;99233.34;5006772;28;20938;-80
2021/12/17 09:33:43;;;;;;;10.77;6.03;;;4.80;99.90;;;3.95;100.00;99237.78;5018271;28;20029;-80
2021/12/17 09:36:09;;;;;;;9.88;6.03;;;4.80;99.90;;;3.96;100.00;99236.91;5024116;28;20033;-80
2021/12/17 09:38:35;;;;;;;9.02;5.97;;;4.80;99.90;;;3.99;100.00;99235.22;5000159;28;20572;-80
2021/12/17 09:41:01;;;;;;;9.73;5.45;;;4.80;99.90;;;3.93;100.00;99221.16;5002076;28;20112;-80
2021/12/17 09:43:29;;;;;;;9.50;5.55;;;4.80;99.90;;;3.98;100.00;99238.72;4996448;28;20137;-80
2021/12/17 09:45:56;;;;;;;8.32;5.45;;;4.80;99.90;;;4.00;100.00;99229.16;5000534;28;20482;-80
2021/12/17 09:48:23;;;;;;;8.10;5.53;;;4.80;99.90;;;4.03;100.00;99233.56;5015070;28;20502;-80
2021/12/17 09:50:49;;;;;;;8.85;5.30;;;4.90;99.90;;;4.07;100.00;99224.03;4994613;28;20121;-80
2021/12/17 09:53:15;;;;;;;7.32;5.32;;;4.90;99.90;;;4.10;100.00;99221.50;4996035;28;20038;-80
2021/12/17 09:55:41;;;;;;;10.07;5.30;;;5.00;99.90;;;4.08;100.00;99226.69;5016590;28;20221;-80
2021/12/17 09:58:07;;;;;;;9.55;5.80;;;5.00;99.90;;;4.02;100.00;99205.69;4996330;28;20439;-80
2021/12/17 10:00:33;;;;;;;7.68;5.40;;;5.00;99.90;;;4.05;100.00;99204.88;5001895;28;20075;-80
2021/12/17 10:02:59;;;;;;;7.07;5.10;;;5.00;99.90;;;4.20;100.00;99229.53;4994263;28;20879;-80
2021/12/17 10:05:32;;;;;;;7.82;5.25;;;5.00;99.90;;;4.26;100.00;99243.56;5016406;28;20033;-80
2021/12/17 10:08:05;;;;;;;6.30;5.22;;;5.00;99.90;;;4.14;100.00;99200.66;5011995;28;20033;-80
2021/12/17 10:10:41;;;;;;;8.27;5.97;;;5.10;99.90;;;4.20;100.00;99215.59;4995187;28;20496;-80
2021/12/17 10:13:29;;;;;;;7.07;5.28;;;5.10;99.90;;;4.34;100.00;99232.38;5002186;28;20037;-80
2021/12/17 10:16:06;;;;;;;6.90;5.43;;;5.10;99.90;;;4.36;100.00;99233.28;5011999;28;20846;-80
2021/12/17 10:18:47;;;;;;;8.73;5.75;;;5.10;99.90;;;4.42;100.00;99226.41;4991111;28;20101;-80
2021/12/17 10:21:24;;;;;;;7.15;5.22;;;5.10;99.90;;;4.45;100.00;99221.22;4993584;28;20087;-80
2021/12/17 10:23:53;;;;;;;7.97;5.75;;;5.20;99.90;;;4.48;100.00;99223.88;4983988;28;20532;-80
2021/12/17 10:26:22;;;;;;;9.05;5.82;;;5.20;99.90;;;4.48;100.00;99218.66;4989376;28;20057;-81
2021/12/17 10:29:02;;;;;;;9.88;6.22;;;5.20;99.90;;;4.48;100.00;99218.66;4990160;28;20046;-81
2021/12/17 10:31:30;;;;;;;8.73;6.22;;;5.30;99.90;;;4.52;100.00;99217.84;4992756;28;20397;-81
2021/12/17 10:34:01;;;;;;;8.02;5.68;;;5.30;99.90;;;4.65;100.00;99224.16;4984451;28;20441;-81
2021/12/17 10:36:36;;;;;;;11.90;6.68;;;5.40;99.90;;;4.83;100.00;99228.78;4993698;28;20028;-81
2021/12/17 10:39:29;;;;;;;9.18;6.60;;;5.50;99.90;;;4.83;100.00;99234.91;4988773;28;20034;-81
2021/12/17 10:41:55;;;;;;;10.20;6.07;;;5.50;99.90;;;4.89;100.00;99236.75;4980334;28;20425;-81
2021/12/17 10:44:22;;;;;;;8.45;6.00;;;5.60;99.90;;;4.91;100.00;99232.41;4996523;28;20029;-81
2021/12/17 10:47:15;;;;;;;11.55;6.60;;;5.60;99.90;;;4.93;100.00;99215.00;4997917;28;20474;-81
2021/12/17 10:49:58;;;;;;;10.02;6.28;;;5.70;99.90;;;5.15;100.00;99234.50;4996142;28;20030;-85
2021/12/17 10:52:35;;;;;;;10.10;6.68;;;5.70;99.90;;;4.94;100.00;99232.47;4999364;28;20038;-81
2021/12/17 10:55:14;;;;;;;11.10;7.65;;;5.70;99.90;;;5.14;100.00;99230.13;5018616;28;20050;-81
2021/12/17 10:57:40;;;;;;;11.85;7.82;;;5.80;99.90;;;5.10;100.00;99234.44;4989604;28;20037;-81
2021/12/17 11:00:08;;;;;;;10.05;7.05;;;5.80;99.90;;;5.08;100.00;99236.16;5000249;28;20042;-81
2021/12/17 11:02:36;;;;;;;11.75;8.00;;;5.80;99.90;;;5.17;100.00;99219.72;5000099;28;20091;-81
2021/12/17 11:05:13;;;;;;;13.45;7.50;;;5.80;99.90;;;5.21;100.00;99233.72;4994944;28;20037;-81
2021/12/17 11:07:39;;;;;;;12.57;8.25;;;5.80;99.90;;;5.38;100.00;99232.19;5022791;28;20041;-81
2021/12/17 11:10:06;;;;;;;9.95;7.15;;;5.90;99.90;;;5.19;100.00;99241.56;5010923;28;20067;-81
2021/12/17 11:12:42;;;;;;;10.60;7.63;;;5.90;99.90;;;5.13;100.00;99223.13;5010186;28;20022;-81
2021/12/17 11:15:17;;;;;;;9.65;7.45;;;5.90;99.90;;;5.08;100.00;99228.31;4994637;28;20045;-81
2021/12/17 11:17:46;;;;;;;10.48;6.97;;;5.80;99.90;;;5.03;100.00;99229.97;5013518;28;20037;-81
2021/12/17 11:20:23;;;;;;;10.13;6.88;;;5.70;99.90;;;5.10;100.00;99233.56;5013473;28;20057;-81
2021/12/17 11:22:51;;;;;;;10.02;7.50;;;5.70;99.90;;;4.87;100.00;99215.78;5023410;28;20037;-81
2021/12/17 11:25:20;;;;;;;11.23;7.35;;;5.70;99.90;;;4.92;100.00;99229.81;5029796;28;20033;-81
2021/12/17 11:27:46;;;;;;;10.93;7.53;;;5.60;99.90;;;4.89;100.00;99218.44;4994973;28;20029;-80
2021/12/17 11:30:25;;;;;;;9.30;6.53;;;5.60;99.90;;;4.80;100.00;99211.34;5003192;28;20457;-80
2021/12/17 11:32:52;;;;;;;10.85;7.20;;;5.50;99.90;;;4.73;100.00;99199.91;5000304;28;20092;-80
2021/12/17 11:35:23;;;;;;;9.32;6.95;;;5.50;99.90;;;4.80;100.00;99210.47;5022241;28;20037;-80
2021/12/17 11:37:52;;;;;;;10.85;7.60;;;5.50;99.90;;;4.64;100.00;99193.66;5001962;28;20113;-80
2021/12/17 11:40:52;;;;;;;10.13;7.15;;;5.50;99.90;;;4.72;100.00;99212.94;5028734;28;20046;-80
2021/12/17 11:43:51;;;;;;;10.18;6.57;;;5.40;99.90;;;4.62;100.00;99188.41;5007700;28;20018;-80
2021/12/17 11:46:26;;;;;;;10.18;6.85;;;5.40;99.90;;;4.88;100.00;99200.97;5004702;28;20045;-80
2021/12/17 11:48:56;;;;;;;10.23;7.05;;;5.50;99.90;;;4.90;100.00;99201.88;5011125;28;20037;-80
2021/12/17 11:51:26;;;;;;;12.00;7.22;;;5.60;99.90;;;4.96;100.00;99212.44;5025730;28;20033;-80
2021/12/17 11:53:52;;;;;;;10.80;7.05;;;5.60;99.90;;;5.05;100.00;99203.84;5000778;28;20048;-80
2021/12/17 11:56:36;;;;;;;10.63;7.15;;;5.70;99.90;;;4.92;100.00;99218.50;5019008;28;20041;-80
2021/12/17 11:59:03;;;;;;;13.95;7.63;;;5.70;99.90;;;4.88;100.00;99214.06;5026110;28;20053;-80
2021/12/17 12:01:51;;;;;;;11.93;7.30;;;5.70;99.90;;;4.87;100.00;99191.41;5011063;28;20029;-80
2021/12/17 12:04:32;;;;;;;9.57;6.95;;;5.60;99.90;;;4.91;100.00;99196.69;5019839;28;20292;-80
2021/12/17 12:07:14;;;;;;;10.65;7.28;;;5.60;99.90;;;4.82;100.00;99180.00;5017647;28;20041;-80
2021/12/17 12:10:05;;;;;;;12.88;7.80;;;5.60;99.90;;;5.00;100.00;99203.78;5003698;28;20033;-80
2021/12/17 12:12:42;;;;;;;10.13;7.18;;;5.70;99.90;;;5.06;100.00;99195.13;5022569;28;20029;-81
2021/12/17 12:15:17;;;;;;;12.60;6.93;;;5.70;99.90;;;5.14;100.00;99199.63;5003889;28;20033;-81
2021/12/17 12:17:57;;;;;;;9.65;6.85;;;5.80;99.90;;;5.19;100.00;99196.19;5014673;28;20093;-80
2021/12/17 12:20:48;;;;;;;9.52;6.88;;;5.80;99.90;;;5.17;100.00;99193.56;5013355;28;20037;-81
2021/12/17 12:23:35;;;;;;;9.13;6.25;;;5.90;99.90;;;5.12;100.00;99183.03;5013670;28;20042;-81
2021/12/17 12:26:01;;;;;;;9.23;6.07;;;5.80;99.90;;;5.24;100.00;99197.13;4998029;28;20033;-81
2021/12/17 12:28:45;;;;;;;8.48;6.18;;;5.90;99.90;;;5.27;100.00;99205.00;5017680;28;20258;-81
2021/12/17 12:31:20;;;;;;;9.48;6.05;;;5.90;99.90;;;5.42;100.00;99204.31;5011975;28;20030;-80
2021/12/17 12:34:02;;;;;;;10.13;5.95;;;6.00;99.90;;;5.49;100.00;99198.31;5019358;28;20062;-80
2021/12/17 12:37:29;;;;;;;9.02;6.03;;;6.10;99.90;;;5.49;100.00;99185.22;5000677;28;20117;-80
2021/12/17 12:39:57;;;;;;;8.68;5.50;;;6.20;99.90;;;5.43;100.00;99180.81;4985272;28;20049;-80
2021/12/17 12:42:31;;;;;;;10.18;6.53;;;6.10;99.90;;;5.39;100.00;99176.41;5016771;28;20197;-80
2021/12/17 12:44:56;;;;;;;8.82;5.85;;;6.10;99.90;;;5.39;100.00;99172.91;5003234;28;20490;-80
2021/12/17 12:47:29;;;;;;;8.15;5.85;;;6.10;99.90;;;5.37;100.00;99172.88;5020897;28;20168;-80
2021/12/17 12:50:04;;;;;;;11.30;6.00;;;6.10;99.90;;;5.65;100.00;99175.81;5000121;28;20103;-80
2021/12/17 12:52:59;;;;;;;10.85;6.38;;;6.20;99.90;;;5.64;100.00;99171.47;5012348;28;20560;-80
2021/12/17 12:55:37;;;;;;;12.40;7.53;;;6.30;99.90;;;5.57;100.00;99169.63;4985328;28;20030;-80
2021/12/17 12:58:08;;;;;;;9.98;7.15;;;6.30;99.90;;;5.53;100.00;99171.34;5015375;28;20092;-80
2021/12/17 13:00:43;;;;;;;9.07;6.63;;;6.20;99.90;;;5.69;100.00;99181.13;4996271;28;20057;-80
2021/12/17 13:03:25;;;;;;;11.00;7.03;;;6.30;99.90;;;5.67;100.00;99174.09;4998834;28;20496;-79
2021/12/17 13:05:52;;;;;;;11.93;7.65;;;6.30;99.90;;;5.52;100.00;99153.84;4988881;28;20341;-80
2021/12/17 13:08:20;;;;;;;9.00;6.43;;;6.30;99.90;;;5.46;100.00;99157.28;4988389;28;20308;-80
2021/12/17 13:10:59;;;;;;;10.48;6.97;;;6.20;99.90;;;5.39;100.00;99158.09;5007723;28;20030;-80
2021/12/17 13:24:16;;;;;;;9.35;6.85;;;6.20;99.90;;;5.59;100.00;99194.09;5020718;28;20599;-80
2021/12/17 13:27:11;;;;;;;10.63;7.20;;;6.30;99.90;;;5.48;100.00;99173.88;4995404;28;20072;-80
2021/12/17 13:29:43;;;;;;;11.00;7.38;;;6.30;99.90;;;5.58;100.00;99192.31;4998726;28;20057;-80
2021/12/17 13:32:13;;;;;;;;;;;6.30;99.90;;;5.69;100.00;99180.25;5002645;28;20030;-80
2021/12/17 13:34:58;;;;;;;12.07;7.38;;;6.40;99.90;;;5.73;100.00;99176.78;5005119;28;19922;-80
2021/12/17 13:37:27;;;;;;;9.77;6.70;;;6.40;99.90;;;5.64;100.00;99148.78;5022197;28;20026;-80
2021/12/17 13:40:07;;;;;;;7.85;5.97;;;6.40;99.90;;;5.71;100.00;99152.34;5001524;28;20080;-80
2021/12/17 13:42:39;;;;;;;11.18;6.78;;;6.40;99.90;;;5.77;100.00;99164.63;5018382;28;20452;-80
2021/12/17 13:45:15;;;;;;;12.13;6.53;;;6.40;99.90;;;5.68;100.00;99160.16;4978403;28;20059;-80